createdAt,value
2023-05-10T00:00:58.232Z,10.52
2023-05-10T00:03:25.559Z,9.30
2023-05-10T00:05:52.804Z,9.50
2023-05-10T00:08:20.071Z,8.73
2023-05-10T00:10:47.139Z,9.40
2023-05-10T00:13:14.477Z,9.82
2023-05-10T00:15:41.618Z,9.38
2023-05-10T00:18:08.980Z,11.50
2023-05-10T00:20:36.227Z,11.18
2023-05-10T00:23:03.381Z,9.50
2023-05-10T00:25:30.426Z,10.18
2023-05-10T00:27:58.354Z,9.10
2023-05-10T00:30:25.678Z,10.65
2023-05-10T00:32:53.102Z,9.48
2023-05-10T00:35:20.517Z,9.80
2023-05-10T00:37:48.910Z,9.02
2023-05-10T00:40:16.313Z,10.75
2023-05-10T00:42:47.699Z,9.05
2023-05-10T00:45:14.864Z,9.82
2023-05-10T00:47:42.117Z,9.63
2023-05-10T00:50:10.365Z,9.43
2023-05-10T00:52:37.555Z,9.65
2023-05-10T00:55:23.891Z,10.20
2023-05-10T00:57:51.455Z,9.35
2023-05-10T01:00:19.743Z,9.50
2023-05-10T01:02:47.862Z,9.23
2023-05-10T01:05:15.181Z,8.88
2023-05-10T01:07:42.390Z,8.75
2023-05-10T01:10:11.643Z,9.05
2023-05-10T01:12:41.813Z,9.20
2023-05-10T01:15:11.965Z,8.23
2023-05-10T01:17:42.024Z,7.57
2023-05-10T01:20:11.303Z,6.97
2023-05-10T01:22:56.779Z,8.45
2023-05-10T01:25:48.696Z,7.95
2023-05-10T01:28:46.668Z,8.02
2023-05-10T01:31:44.424Z,7.30
2023-05-10T01:34:19.813Z,9.77
2023-05-10T01:36:52.377Z,8.02
2023-05-10T01:39:31.440Z,7.20
2023-05-10T01:42:09.321Z,13.25
2023-05-10T01:44:51.531Z,14.25
2023-05-10T01:47:26.628Z,12.27
2023-05-10T01:49:56.459Z,9.80
2023-05-10T01:52:51.167Z,7.85
2023-05-10T01:55:22.146Z,9.07
2023-05-10T01:58:00.057Z,7.85
2023-05-10T02:00:28.326Z,7.05
2023-05-10T02:02:56.536Z,6.70
2023-05-10T02:05:25.358Z,5.55
2023-05-10T02:07:54.116Z,7.47
2023-05-10T02:10:22.044Z,7.78
2023-05-10T02:12:50.527Z,6.85
2023-05-10T02:15:22.420Z,7.75
2023-05-10T02:17:50.849Z,8.35
2023-05-10T02:20:20.284Z,9.40
2023-05-10T02:22:51.818Z,11.15
2023-05-10T02:25:20.480Z,10.68
2023-05-10T02:27:49.408Z,10.45
2023-05-10T02:30:18.088Z,10.40
2023-05-10T02:32:46.204Z,10.15
2023-05-10T02:35:13.985Z,10.35
2023-05-10T02:37:43.098Z,10.25
2023-05-10T02:40:12.129Z,9.43
2023-05-10T02:42:43.436Z,8.60
2023-05-10T02:45:14.543Z,10.00
2023-05-10T02:47:44.846Z,12.18
2023-05-10T02:50:12.469Z,14.10
2023-05-10T02:52:48.799Z,12.30
2023-05-10T02:55:17.982Z,12.18
2023-05-10T02:57:52.056Z,11.75
2023-05-10T03:00:19.513Z,13.35
2023-05-10T03:02:46.613Z,12.73
2023-05-10T03:05:13.721Z,12.57
2023-05-10T03:07:40.903Z,12.10
2023-05-10T03:10:09.017Z,12.20
2023-05-10T03:12:56.890Z,12.50
2023-05-10T03:15:30.296Z,10.27
2023-05-10T03:18:10.748Z,11.52
2023-05-10T03:20:49.530Z,10.60
2023-05-10T03:23:25.416Z,10.98
2023-05-10T03:25:53.463Z,11.02
2023-05-10T03:28:22.190Z,8.85
2023-05-10T03:30:50.870Z,9.75
2023-05-10T03:33:18.085Z,9.73
2023-05-10T03:35:47.397Z,10.30
2023-05-10T03:38:15.484Z,9.90
2023-05-10T03:40:42.571Z,10.48
2023-05-10T03:43:09.689Z,10.70
2023-05-10T03:45:37.371Z,10.45
2023-05-10T03:48:05.252Z,10.13
2023-05-10T03:50:32.469Z,11.30
2023-05-10T03:52:59.551Z,10.70
2023-05-10T03:55:28.192Z,12.15
2023-05-10T03:57:55.361Z,27.65
2023-05-10T04:00:23.505Z,12.50
2023-05-10T04:02:54.609Z,11.05
2023-05-10T04:05:21.805Z,9.00
2023-05-10T04:07:50.402Z,10.43
2023-05-10T04:10:18.098Z,7.57
2023-05-10T04:12:47.104Z,8.13
2023-05-10T04:15:14.488Z,6.07
2023-05-10T04:17:41.718Z,7.15
2023-05-10T04:20:09.521Z,6.28
2023-05-10T04:22:36.902Z,6.28
2023-05-10T04:25:04.269Z,7.10
2023-05-10T04:27:32.217Z,5.45
2023-05-10T04:29:59.440Z,6.40
2023-05-10T04:32:26.594Z,5.70
2023-05-10T04:34:54.192Z,6.05
2023-05-10T04:37:22.485Z,4.93
2023-05-10T04:39:49.591Z,4.30
2023-05-10T04:42:16.758Z,4.88
2023-05-10T04:44:44.732Z,4.65
2023-05-10T04:47:12.936Z,5.63
2023-05-10T04:49:40.289Z,5.03
2023-05-10T04:52:07.408Z,4.55
2023-05-10T04:54:35.609Z,4.65
2023-05-10T04:57:02.658Z,4.47
2023-05-10T04:59:29.708Z,4.13
2023-05-10T05:01:56.849Z,4.50
2023-05-10T05:04:25.163Z,4.13
2023-05-10T05:06:53.929Z,3.83
2023-05-10T05:09:21.376Z,4.10
2023-05-10T05:11:48.558Z,3.92
2023-05-10T05:14:15.698Z,3.72
2023-05-10T05:16:42.855Z,5.13
2023-05-10T05:19:09.984Z,3.78
2023-05-10T05:21:37.276Z,3.90
2023-05-10T05:24:04.858Z,3.92
2023-05-10T05:26:31.964Z,3.20
2023-05-10T05:28:59.025Z,3.65
2023-05-10T05:31:26.203Z,2.97
2023-05-10T05:33:53.473Z,2.90
2023-05-10T05:36:20.582Z,4.47
2023-05-10T05:38:47.706Z,2.75
2023-05-10T05:41:14.956Z,2.30
2023-05-10T05:43:42.048Z,2.33
2023-05-10T05:46:09.206Z,2.72
2023-05-10T05:48:36.552Z,2.55
2023-05-10T05:51:05.147Z,2.67
2023-05-10T05:53:33.684Z,2.33
2023-05-10T05:56:00.794Z,2.05
2023-05-10T05:58:28.034Z,1.90
2023-05-10T06:00:55.221Z,1.85
2023-05-10T06:03:22.525Z,3.05
2023-05-10T06:05:49.806Z,2.25
2023-05-10T06:08:16.899Z,2.17
2023-05-10T06:10:44.286Z,2.20
2023-05-10T06:13:11.843Z,2.03
2023-05-10T06:15:39.421Z,3.70
2023-05-10T06:18:07.250Z,1.85
2023-05-10T06:20:34.513Z,1.90
2023-05-10T06:23:01.761Z,1.92
2023-05-10T06:25:29.086Z,2.25
2023-05-10T06:27:58.871Z,1.88
2023-05-10T06:30:29.875Z,1.80
2023-05-10T06:32:58.242Z,1.98
2023-05-10T06:35:25.786Z,1.90
2023-05-10T06:37:53.356Z,1.70
2023-05-10T06:40:20.777Z,1.52
2023-05-10T06:42:49.139Z,1.90
2023-05-10T06:45:17.125Z,2.10
2023-05-10T06:47:44.762Z,1.80
2023-05-10T06:50:12.831Z,1.67
2023-05-10T06:52:40.339Z,1.60
2023-05-10T06:55:09.427Z,1.90
2023-05-10T06:57:36.592Z,2.25
2023-05-10T07:00:08.017Z,2.13
2023-05-10T07:02:35.425Z,1.80
2023-05-10T07:05:03.649Z,1.65
2023-05-10T07:07:32.656Z,1.60
2023-05-10T07:09:59.898Z,1.60
2023-05-10T07:12:27.220Z,2.10
2023-05-10T07:14:54.558Z,1.63
2023-05-10T07:17:21.683Z,2.10
2023-05-10T07:19:48.827Z,1.80
2023-05-10T07:22:16.558Z,1.80
2023-05-10T07:24:43.927Z,2.10
2023-05-10T07:27:11.018Z,2.28
2023-05-10T07:29:38.611Z,1.77
2023-05-10T07:32:06.973Z,1.90
2023-05-10T07:34:34.189Z,2.28
2023-05-10T07:37:01.913Z,2.45
2023-05-10T07:39:29.126Z,2.28
2023-05-10T07:41:56.909Z,2.20
2023-05-10T07:44:24.493Z,2.40
2023-05-10T07:46:51.863Z,2.08
2023-05-10T07:49:19.079Z,1.90
2023-05-10T07:51:46.224Z,2.00
2023-05-10T07:54:13.838Z,2.40
2023-05-10T07:56:46.064Z,2.13
2023-05-10T07:59:17.023Z,2.13
2023-05-10T08:01:44.639Z,2.00
2023-05-10T08:04:12.699Z,1.77
2023-05-10T08:06:40.751Z,1.92
2023-05-10T08:09:08.106Z,2.75
2023-05-10T08:11:35.471Z,2.10
2023-05-10T08:14:02.840Z,2.20
2023-05-10T08:16:30.167Z,1.83
2023-05-10T08:18:57.493Z,2.42
2023-05-10T08:21:24.695Z,2.05
2023-05-10T08:23:51.904Z,2.03
2023-05-10T08:26:19.014Z,3.17
2023-05-10T08:28:46.120Z,3.95
2023-05-10T08:31:13.289Z,2.50
2023-05-10T08:33:42.168Z,2.17
2023-05-10T08:36:10.210Z,1.93
2023-05-10T08:38:38.684Z,1.92
2023-05-10T08:41:07.244Z,1.50
2023-05-10T08:43:37.733Z,1.77
2023-05-10T08:46:06.599Z,1.60
2023-05-10T08:48:35.906Z,1.70
2023-05-10T08:51:04.825Z,1.52
2023-05-10T08:53:36.480Z,2.58
2023-05-10T08:56:04.758Z,1.65
2023-05-10T08:58:32.239Z,2.08
2023-05-10T09:01:00.483Z,2.10
2023-05-10T09:03:27.860Z,2.90
2023-05-10T09:05:56.914Z,4.10
2023-05-10T09:08:27.900Z,1.60
2023-05-10T09:10:58.151Z,2.40
2023-05-10T09:13:26.199Z,1.83
2023-05-10T09:15:54.824Z,1.52
2023-05-10T09:18:22.002Z,1.70
2023-05-10T09:20:50.292Z,2.33
2023-05-10T09:23:17.529Z,1.80
2023-05-10T09:25:44.557Z,1.90
2023-05-10T09:28:12.951Z,2.00
2023-05-10T09:30:40.507Z,2.00
2023-05-10T09:33:08.133Z,2.00
2023-05-10T09:35:35.427Z,1.85
2023-05-10T09:38:05.299Z,1.95
2023-05-10T09:40:33.034Z,1.90
2023-05-10T09:43:07.009Z,5.68
2023-05-10T09:45:38.298Z,2.60
2023-05-10T09:48:07.167Z,1.98
2023-05-10T09:50:35.379Z,2.30
2023-05-10T09:53:04.956Z,2.47
2023-05-10T09:55:45.904Z,2.03
2023-05-10T09:58:15.346Z,2.25
2023-05-10T10:00:53.266Z,2.20
2023-05-10T10:03:23.844Z,2.15
2023-05-10T10:05:51.463Z,2.97
2023-05-10T10:08:18.808Z,3.85
2023-05-10T10:10:47.261Z,4.35
2023-05-10T10:13:16.826Z,4.00
2023-05-10T10:15:45.675Z,2.05
2023-05-10T10:18:18.417Z,2.67
2023-05-10T10:20:46.728Z,2.55
2023-05-10T10:23:15.872Z,1.70
2023-05-10T10:25:46.370Z,5.35
2023-05-10T10:28:48.449Z,2.20
2023-05-10T10:31:32.527Z,2.33
2023-05-10T10:34:05.013Z,2.17
2023-05-10T10:36:34.349Z,2.53
2023-05-10T10:39:03.971Z,2.53
2023-05-10T10:41:35.088Z,4.23
2023-05-10T10:44:24.716Z,2.28
2023-05-10T10:47:25.253Z,2.00
2023-05-10T10:49:55.660Z,1.70
2023-05-10T10:52:31.074Z,1.80
2023-05-10T10:55:07.276Z,2.20
2023-05-10T10:58:01.183Z,1.75
2023-05-10T11:00:37.414Z,2.35
2023-05-10T11:03:09.604Z,2.22
2023-05-10T11:05:44.642Z,1.90
2023-05-10T11:08:17.793Z,1.95
2023-05-10T11:11:09.994Z,1.73
2023-05-10T11:13:46.670Z,2.10
2023-05-10T11:16:16.874Z,2.30
2023-05-10T11:19:00.991Z,2.47
2023-05-10T11:21:28.273Z,30.05
2023-05-10T11:23:57.754Z,4.10
2023-05-10T11:26:36.303Z,5.63
2023-05-10T11:29:05.577Z,2.45
2023-05-10T11:31:32.973Z,2.80
2023-05-10T11:34:02.873Z,3.00
2023-05-10T11:36:37.450Z,2.38
2023-05-10T11:39:06.419Z,46.63
2023-05-10T11:41:34.009Z,2.20
2023-05-10T11:44:01.176Z,1.83
2023-05-10T11:46:29.628Z,1.88
2023-05-10T11:49:02.951Z,2.10
2023-05-10T11:51:30.315Z,2.40
2023-05-10T11:53:58.255Z,2.67
2023-05-10T11:56:27.370Z,2.05
2023-05-10T11:58:57.051Z,2.28
2023-05-10T12:01:26.234Z,2.20
2023-05-10T12:03:55.321Z,2.30
2023-05-10T12:06:22.973Z,2.30
2023-05-10T12:08:54.786Z,2.05
2023-05-10T12:11:26.638Z,2.13
2023-05-10T12:13:54.823Z,1.80
2023-05-10T12:16:26.738Z,1.90
2023-05-10T12:18:56.916Z,1.67
2023-05-10T12:21:25.527Z,1.70
2023-05-10T12:23:59.991Z,2.00
2023-05-10T12:26:30.145Z,1.90
2023-05-10T12:29:14.102Z,1.77
2023-05-10T12:31:51.576Z,1.77
2023-05-10T12:34:32.653Z,1.65
2023-05-10T12:37:00.052Z,1.75
2023-05-10T12:39:27.780Z,1.75
2023-05-10T12:41:54.897Z,1.80
2023-05-10T12:44:22.046Z,2.00
2023-05-10T12:46:49.165Z,1.40
2023-05-10T12:49:16.471Z,1.65
2023-05-10T12:51:43.840Z,2.10
2023-05-10T12:54:10.973Z,2.03
2023-05-10T12:56:38.214Z,1.95
2023-05-10T12:59:05.728Z,1.60
2023-05-10T13:01:32.942Z,1.92
2023-05-10T13:04:01.233Z,2.00
2023-05-10T13:06:28.366Z,1.60
2023-05-10T13:08:55.596Z,2.05
2023-05-10T13:11:22.774Z,1.90
2023-05-10T13:13:49.872Z,1.85
2023-05-10T13:16:17.362Z,1.98
2023-05-10T13:18:44.553Z,1.83
2023-05-10T13:21:12.395Z,1.80
2023-05-10T13:23:39.484Z,1.75
2023-05-10T13:26:06.625Z,1.60
2023-05-10T13:28:33.703Z,1.85
2023-05-10T13:31:01.168Z,1.52
2023-05-10T13:33:28.328Z,1.67
2023-05-10T13:35:55.922Z,2.22
2023-05-10T13:38:23.165Z,1.80
2023-05-10T13:40:53.767Z,1.83
2023-05-10T13:43:21.214Z,1.85
2023-05-10T13:45:48.513Z,1.50
2023-05-10T13:48:15.757Z,1.75
2023-05-10T13:50:44.322Z,1.95
2023-05-10T13:53:11.408Z,2.97
2023-05-10T13:55:38.520Z,1.85
2023-05-10T13:58:05.732Z,1.70
2023-05-10T14:00:33.041Z,5.88
2023-05-10T14:03:00.300Z,9.75
2023-05-10T14:05:28.032Z,2.00
2023-05-10T14:07:55.380Z,2.25
2023-05-10T14:10:22.724Z,2.40
2023-05-10T14:12:51.350Z,1.95
2023-05-10T14:15:18.817Z,1.70
2023-05-10T14:17:46.247Z,2.00
2023-05-10T14:20:13.384Z,1.67
2023-05-10T14:22:41.543Z,1.73
2023-05-10T14:25:09.595Z,2.10
2023-05-10T14:27:36.723Z,4.95
2023-05-10T14:30:04.143Z,15.35
2023-05-10T14:32:33.320Z,3.30
2023-05-10T14:35:00.865Z,2.28
2023-05-10T14:37:28.093Z,1.90
2023-05-10T14:39:55.237Z,2.03
2023-05-10T14:42:22.442Z,2.60
2023-05-10T14:44:49.784Z,2.00
2023-05-10T14:47:16.887Z,3.95
2023-05-10T14:49:43.972Z,2.10
2023-05-10T14:52:13.412Z,3.67
2023-05-10T14:54:41.358Z,2.28
2023-05-10T14:57:08.528Z,2.00
2023-05-10T14:59:35.768Z,2.10
2023-05-10T15:02:04.265Z,2.05
2023-05-10T15:04:31.981Z,1.85
2023-05-10T15:07:00.565Z,2.10
2023-05-10T15:09:28.838Z,2.10
2023-05-10T15:11:56.876Z,1.73
2023-05-10T15:14:24.404Z,1.98
2023-05-10T15:16:51.516Z,1.75
2023-05-10T15:19:18.682Z,1.95
2023-05-10T15:21:46.151Z,2.50
2023-05-10T15:24:13.369Z,2.40
2023-05-10T15:26:40.495Z,2.60
2023-05-10T15:29:07.649Z,2.53
2023-05-10T15:31:37.689Z,2.28
2023-05-10T15:34:04.925Z,1.98
2023-05-10T15:36:33.218Z,2.33
2023-05-10T15:39:00.611Z,2.10
2023-05-10T15:41:27.907Z,2.50
2023-05-10T15:43:55.222Z,2.30
2023-05-10T15:46:22.688Z,2.22
2023-05-10T15:48:50.005Z,2.05
2023-05-10T15:51:17.153Z,2.22
2023-05-10T15:53:56.481Z,2.25
2023-05-10T15:56:31.436Z,2.05
2023-05-10T15:58:58.590Z,2.30
2023-05-10T16:01:26.153Z,2.63
2023-05-10T16:03:53.319Z,2.40
2023-05-10T16:06:20.497Z,2.05
2023-05-10T16:08:47.722Z,2.30
2023-05-10T16:11:14.775Z,2.80
2023-05-10T16:13:41.833Z,2.30
2023-05-10T16:16:09.387Z,2.40
2023-05-10T16:18:36.910Z,2.00
2023-05-10T16:21:04.468Z,2.33
2023-05-10T16:23:31.671Z,3.15
2023-05-10T16:25:58.869Z,2.55
2023-05-10T16:28:26.091Z,2.30
2023-05-10T16:30:53.371Z,2.75
2023-05-10T16:33:20.832Z,2.53
2023-05-10T16:35:47.980Z,2.30
2023-05-10T16:38:15.203Z,2.28
2023-05-10T16:40:42.377Z,2.20
2023-05-10T16:43:09.555Z,3.00
2023-05-10T16:45:36.771Z,2.55
2023-05-10T16:48:04.104Z,2.72
2023-05-10T16:50:31.511Z,2.95
2023-05-10T16:52:58.855Z,2.65
2023-05-10T16:55:26.534Z,2.83
2023-05-10T16:57:59.762Z,2.97
2023-05-10T17:00:27.563Z,2.55
2023-05-10T17:02:55.098Z,3.00
2023-05-10T17:05:22.935Z,3.03
2023-05-10T17:07:50.604Z,2.83
2023-05-10T17:10:18.156Z,3.60
2023-05-10T17:12:45.897Z,2.80
2023-05-10T17:15:13.348Z,3.25
2023-05-10T17:17:40.684Z,3.88
2023-05-10T17:20:08.599Z,5.50
2023-05-10T17:22:36.047Z,2.92
2023-05-10T17:25:04.290Z,2.45
2023-05-10T17:27:32.244Z,3.55
2023-05-10T17:29:59.743Z,3.20
2023-05-10T17:32:27.220Z,2.85
2023-05-10T17:34:54.457Z,3.40
2023-05-10T17:37:21.844Z,3.65
2023-05-10T17:39:48.997Z,3.85
2023-05-10T17:42:19.128Z,3.90
2023-05-10T17:44:46.411Z,2.88
2023-05-10T17:47:13.534Z,3.85
2023-05-10T17:49:40.872Z,3.03
2023-05-10T17:52:08.181Z,3.20
2023-05-10T17:54:35.533Z,5.95
2023-05-10T17:57:03.730Z,4.63
2023-05-10T17:59:30.958Z,5.57
2023-05-10T18:01:58.155Z,4.13
2023-05-10T18:04:26.146Z,4.63
2023-05-10T18:07:01.194Z,4.82
2023-05-10T18:09:29.232Z,5.10
2023-05-10T18:11:56.586Z,5.18
2023-05-10T18:14:39.042Z,4.07
2023-05-10T18:17:09.260Z,3.78
2023-05-10T18:19:36.637Z,3.97
2023-05-10T18:22:03.732Z,6.07
2023-05-10T18:24:39.013Z,5.68
2023-05-10T18:27:08.968Z,6.38
2023-05-10T18:29:37.125Z,4.80
2023-05-10T18:32:04.664Z,5.18
2023-05-10T18:34:31.847Z,5.38
2023-05-10T18:36:59.722Z,4.78
2023-05-10T18:39:26.927Z,5.38
2023-05-10T18:41:54.122Z,9.85
2023-05-10T18:44:23.295Z,10.10
2023-05-10T18:46:54.118Z,5.82
2023-05-10T18:49:21.586Z,6.20
2023-05-10T18:51:48.788Z,9.60
2023-05-10T18:54:15.878Z,5.90
2023-05-10T18:56:45.309Z,5.75
2023-05-10T18:59:13.125Z,5.47
2023-05-10T19:01:43.403Z,6.80
2023-05-10T19:04:10.570Z,9.00
2023-05-10T19:06:37.670Z,6.28
2023-05-10T19:09:04.989Z,9.50
2023-05-10T19:11:34.488Z,11.13
2023-05-10T19:14:02.673Z,8.07
2023-05-10T19:16:30.561Z,7.78
2023-05-10T19:18:58.149Z,9.07
2023-05-10T19:21:25.450Z,12.95
2023-05-10T19:23:53.712Z,14.93
2023-05-10T19:26:22.113Z,14.90
2023-05-10T19:28:52.783Z,13.23
2023-05-10T19:33:47.707Z,11.95
2023-05-10T19:36:15.083Z,12.35
2023-05-10T19:38:42.283Z,11.88
2023-05-10T19:41:09.459Z,14.02
2023-05-10T19:43:39.908Z,12.13
2023-05-10T19:46:07.127Z,12.90
2023-05-10T19:48:34.199Z,15.55
2023-05-10T19:51:07.831Z,11.02
2023-05-10T19:53:36.663Z,12.35
2023-05-10T19:56:05.458Z,12.80
2023-05-10T19:58:34.149Z,12.45
2023-05-10T20:01:01.747Z,11.50
2023-05-10T20:03:29.276Z,12.20
2023-05-10T20:05:56.425Z,15.65
2023-05-10T20:08:23.499Z,14.88
2023-05-10T20:10:50.832Z,15.40
2023-05-10T20:13:18.092Z,15.02
2023-05-10T20:15:46.238Z,15.55
2023-05-10T20:18:13.415Z,15.98
2023-05-10T20:20:40.829Z,14.60
2023-05-10T20:23:07.935Z,14.43
2023-05-10T20:25:35.638Z,11.40
2023-05-10T20:28:03.104Z,12.75
2023-05-10T20:30:30.188Z,11.43
2023-05-10T20:32:57.425Z,12.38
2023-05-10T20:35:24.552Z,15.48
2023-05-10T20:37:51.671Z,34.05
2023-05-10T20:40:19.059Z,26.50
2023-05-10T20:42:47.696Z,16.42
2023-05-10T20:45:16.035Z,15.18
2023-05-10T20:47:43.344Z,14.15
2023-05-10T20:50:11.517Z,13.07
2023-05-10T20:52:38.630Z,13.57
2023-05-10T20:55:06.476Z,14.77
2023-05-10T20:57:33.606Z,14.00
2023-05-10T21:00:00.842Z,12.93
2023-05-10T21:02:29.137Z,12.90
2023-05-10T21:04:57.872Z,11.35
2023-05-10T21:07:25.558Z,9.90
2023-05-10T21:09:52.745Z,10.20
2023-05-10T21:12:19.938Z,10.25
2023-05-10T21:14:47.906Z,10.35
2023-05-10T21:17:15.102Z,11.45
2023-05-10T21:19:44.106Z,10.88
2023-05-10T21:22:11.227Z,9.93
2023-05-10T21:24:38.285Z,10.50
2023-05-10T21:27:07.559Z,10.55
2023-05-10T21:29:34.898Z,10.23
2023-05-10T21:32:02.095Z,9.40
2023-05-10T21:34:29.601Z,10.05
2023-05-10T21:36:56.727Z,9.82
2023-05-10T21:39:23.917Z,9.40
2023-05-10T21:41:51.070Z,9.07
2023-05-10T21:44:18.196Z,9.85
2023-05-10T21:46:45.496Z,9.15
2023-05-10T21:49:12.582Z,8.70
2023-05-10T21:51:39.728Z,10.50
2023-05-10T21:54:06.961Z,8.13
2023-05-10T21:56:34.063Z,9.25
2023-05-10T21:59:01.188Z,8.65
2023-05-10T22:01:28.374Z,9.18
2023-05-10T22:03:55.679Z,8.90
2023-05-10T22:06:22.740Z,7.95
2023-05-10T22:08:49.803Z,8.40
2023-05-10T22:11:16.868Z,7.78
2023-05-10T22:13:44.015Z,7.50
2023-05-10T22:16:11.244Z,7.70
2023-05-10T22:18:38.687Z,8.40
2023-05-10T22:21:05.829Z,7.13
2023-05-10T22:23:33.045Z,8.18
2023-05-10T22:26:02.682Z,7.57
2023-05-10T22:28:30.479Z,8.23
2023-05-10T22:30:57.653Z,8.43
2023-05-10T22:33:24.762Z,8.25
2023-05-10T22:35:52.382Z,8.98
2023-05-10T22:38:19.603Z,8.35
2023-05-10T22:40:46.712Z,9.23
2023-05-10T22:43:13.795Z,8.65
2023-05-10T22:45:40.867Z,9.73
2023-05-10T22:48:09.507Z,8.50
2023-05-10T22:50:37.194Z,8.35
2023-05-10T22:53:04.348Z,7.68
2023-05-10T22:55:31.471Z,8.05
2023-05-10T22:57:58.903Z,8.23
2023-05-10T23:00:26.419Z,8.32
2023-05-10T23:02:54.512Z,8.40
2023-05-10T23:05:21.790Z,8.18
2023-05-10T23:07:53.239Z,7.93
2023-05-10T23:10:20.968Z,7.88
2023-05-10T23:12:48.240Z,8.88
2023-05-10T23:15:15.565Z,8.35
2023-05-10T23:17:43.635Z,8.35
2023-05-10T23:20:11.680Z,8.90
2023-05-10T23:22:38.832Z,8.90
2023-05-10T23:25:06.395Z,8.85
2023-05-10T23:27:33.693Z,8.85
2023-05-10T23:30:00.811Z,8.02
2023-05-10T23:32:27.974Z,8.65
2023-05-10T23:34:55.071Z,9.02
2023-05-10T23:37:22.159Z,8.65
2023-05-10T23:39:49.307Z,8.85
2023-05-10T23:42:16.563Z,8.77
2023-05-10T23:44:43.732Z,8.70
2023-05-10T23:47:10.815Z,8.13
2023-05-10T23:49:38.250Z,8.35
2023-05-10T23:52:05.347Z,7.25
2023-05-10T23:54:32.374Z,7.65
2023-05-10T23:56:59.579Z,7.32
2023-05-10T23:59:27.081Z,8.13
